sensor_id;sensor_type;location;lat;lon;timestamp;temperature;humidity
70928;SHT31;58587;53.034;18.576;2022-09-28T08:18:56;11.32;86.50
70928;SHT31;58587;53.034;18.576;2022-09-28T08:21:22;11.30;87.22
70928;SHT31;58587;53.034;18.576;2022-09-28T08:24:06;11.33;87.18
70928;SHT31;58587;53.034;18.576;2022-09-28T08:26:32;11.42;86.54
70928;SHT31;58587;53.034;18.576;2022-09-28T08:28:57;11.50;86.40
70928;SHT31;58587;53.034;18.576;2022-09-28T08:31:23;11.49;85.86
70928;SHT31;58587;53.034;18.576;2022-09-28T08:33:48;11.59;84.65
70928;SHT31;58587;53.034;18.576;2022-09-28T08:36:18;11.55;85.83
70928;SHT31;58587;53.034;18.576;2022-09-28T08:38:44;11.59;85.03
70928;SHT31;58587;53.034;18.576;2022-09-28T08:41:20;11.66;85.33
70928;SHT31;58587;53.034;18.576;2022-09-28T08:43:59;11.65;83.72
70928;SHT31;58587;53.034;18.576;2022-09-28T08:46:34;11.67;82.45
70928;SHT31;58587;53.034;18.576;2022-09-28T08:49:27;11.69;83.53
70928;SHT31;58587;53.034;18.576;2022-09-28T08:54:54;11.73;84.08
70928;SHT31;58587;53.034;18.576;2022-09-28T08:57:38;11.63;82.93
70928;SHT31;58587;53.034;18.576;2022-09-28T09:01:00;11.63;82.86
70928;SHT31;58587;53.034;18.576;2022-09-28T09:03:05;11.59;83.03
70928;SHT31;58587;53.034;18.576;2022-09-28T09:11:40;11.62;82.96
70928;SHT31;58587;53.034;18.576;2022-09-28T09:14:41;11.52;81.79
70928;SHT31;58587;53.034;18.576;2022-09-28T09:17:38;11.43;81.60
70928;SHT31;58587;53.034;18.576;2022-09-28T09:20:24;11.46;82.13
70928;SHT31;58587;53.034;18.576;2022-09-28T09:22:58;11.47;82.65
70928;SHT31;58587;53.034;18.576;2022-09-28T09:25:41;11.42;82.81
70928;SHT31;58587;53.034;18.576;2022-09-28T09:31:11;11.57;82.71
70928;SHT31;58587;53.034;18.576;2022-09-28T09:34:05;11.63;83.39
70928;SHT31;58587;53.034;18.576;2022-09-28T09:36:46;11.74;82.53
70928;SHT31;58587;53.034;18.576;2022-09-28T09:48:00;12.08;81.30
70928;SHT31;58587;53.034;18.576;2022-09-28T09:50:34;12.25;80.83
70928;SHT31;58587;53.034;18.576;2022-09-28T09:55:46;12.68;82.01
70928;SHT31;58587;53.034;18.576;2022-09-28T09:58:22;12.76;79.04
70928;SHT31;58587;53.034;18.576;2022-09-28T10:00:51;12.71;78.05
70928;SHT31;58587;53.034;18.576;2022-09-28T10:03:24;12.73;77.06
70928;SHT31;58587;53.034;18.576;2022-09-28T10:06:05;12.71;77.36
70928;SHT31;58587;53.034;18.576;2022-09-28T10:08:39;12.78;78.09
70928;SHT31;58587;53.034;18.576;2022-09-28T10:11:26;12.91;76.11
70928;SHT31;58587;53.034;18.576;2022-09-28T10:13:52;13.00;76.77
70928;SHT31;58587;53.034;18.576;2022-09-28T10:16:18;13.13;78.15
70928;SHT31;58587;53.034;18.576;2022-09-28T10:18:44;13.28;78.45
70928;SHT31;58587;53.034;18.576;2022-09-28T10:21:14;13.27;76.72
70928;SHT31;58587;53.034;18.576;2022-09-28T10:23:40;13.39;76.57
70928;SHT31;58587;53.034;18.576;2022-09-28T10:26:11;13.64;76.29
70928;SHT31;58587;53.034;18.576;2022-09-28T10:28:44;13.81;75.74
70928;SHT31;58587;53.034;18.576;2022-09-28T10:31:34;13.94;74.96
70928;SHT31;58587;53.034;18.576;2022-09-28T10:34:00;13.92;72.98
70928;SHT31;58587;53.034;18.576;2022-09-28T10:36:25;14.00;74.03
70928;SHT31;58587;53.034;18.576;2022-09-28T10:38:51;14.04;72.17
70928;SHT31;58587;53.034;18.576;2022-09-28T10:41:18;14.08;71.21
70928;SHT31;58587;53.034;18.576;2022-09-28T10:43:54;14.17;73.38
70928;SHT31;58587;53.034;18.576;2022-09-28T10:46:37;14.21;71.15
70928;SHT31;58587;53.034;18.576;2022-09-28T10:49:14;14.45;71.98
70928;SHT31;58587;53.034;18.576;2022-09-28T10:51:51;14.65;70.31
70928;SHT31;58587;53.034;18.576;2022-09-28T10:54:26;14.79;73.44
70928;SHT31;58587;53.034;18.576;2022-09-28T10:56:54;15.02;71.59
70928;SHT31;58587;53.034;18.576;2022-09-28T11:04:41;15.35;68.70
70928;SHT31;58587;53.034;18.576;2022-09-28T11:07:43;15.43;65.96
70928;SHT31;58587;53.034;18.576;2022-09-28T11:10:19;15.38;66.95
70928;SHT31;58587;53.034;18.576;2022-09-28T11:12:46;15.61;68.39
70928;SHT31;58587;53.034;18.576;2022-09-28T11:15:23;15.71;68.64
70928;SHT31;58587;53.034;18.576;2022-09-28T11:17:50;16.05;67.99
70928;SHT31;58587;53.034;18.576;2022-09-28T11:30:46;16.52;66.06
70928;SHT31;58587;53.034;18.576;2022-09-28T11:33:15;16.42;63.34
70928;SHT31;58587;53.034;18.576;2022-09-28T11:35:50;16.53;64.46
70928;SHT31;58587;53.034;18.576;2022-09-28T11:44:03;16.36;62.68
70928;SHT31;58587;53.034;18.576;2022-09-28T11:52:17;17.17;60.18
70928;SHT31;58587;53.034;18.576;2022-09-28T11:55:14;17.04;62.53
70928;SHT31;58587;53.034;18.576;2022-09-28T11:57:45;16.64;60.64
70928;SHT31;58587;53.034;18.576;2022-09-28T12:00:15;16.53;62.30
70928;SHT31;58587;53.034;18.576;2022-09-28T12:02:50;16.52;62.45
70928;SHT31;58587;53.034;18.576;2022-09-28T12:05:28;16.43;64.81
70928;SHT31;58587;53.034;18.576;2022-09-28T12:08:08;16.25;62.97
70928;SHT31;58587;53.034;18.576;2022-09-28T12:11:17;16.06;64.96
70928;SHT31;58587;53.034;18.576;2022-09-28T12:13:48;15.91;63.20
70928;SHT31;58587;53.034;18.576;2022-09-28T12:16:33;16.10;61.98
70928;SHT31;58587;53.034;18.576;2022-09-28T12:19:14;16.34;59.95
70928;SHT31;58587;53.034;18.576;2022-09-28T12:21:48;16.15;61.74
70928;SHT31;58587;53.034;18.576;2022-09-28T12:24:22;16.33;60.87
70928;SHT31;58587;53.034;18.576;2022-09-28T12:29:25;16.16;61.29
70928;SHT31;58587;53.034;18.576;2022-09-28T12:32:08;16.05;62.28
70928;SHT31;58587;53.034;18.576;2022-09-28T12:34:35;16.15;64.04
70928;SHT31;58587;53.034;18.576;2022-09-28T12:56:40;15.13;64.83
70928;SHT31;58587;53.034;18.576;2022-09-28T13:07:04;14.51;65.83
70928;SHT31;58587;53.034;18.576;2022-09-28T13:18:06;14.69;67.06
70928;SHT31;58587;53.034;18.576;2022-09-28T13:23:43;17.66;60.04
70928;SHT31;58587;53.034;18.576;2022-09-28T13:26:15;18.33;56.21
70928;SHT31;58587;53.034;18.576;2022-09-28T13:28:44;18.46;56.97
70928;SHT31;58587;53.034;18.576;2022-09-28T13:31:11;18.40;58.21
70928;SHT31;58587;53.034;18.576;2022-09-28T13:33:43;18.02;57.50
70928;SHT31;58587;53.034;18.576;2022-09-28T13:38:55;17.34;58.68
70928;SHT31;58587;53.034;18.576;2022-09-28T13:41:35;16.97;60.35
70928;SHT31;58587;53.034;18.576;2022-09-28T13:57:40;15.59;64.55
70928;SHT31;58587;53.034;18.576;2022-09-28T14:13:07;15.30;65.97
70928;SHT31;58587;53.034;18.576;2022-09-28T14:18:46;15.31;67.48
70928;SHT31;58587;53.034;18.576;2022-09-28T14:21:33;15.19;65.89
70928;SHT31;58587;53.034;18.576;2022-09-28T14:24:08;15.30;67.82
70928;SHT31;58587;53.034;18.576;2022-09-28T14:29:43;15.27;68.83
70928;SHT31;58587;53.034;18.576;2022-09-28T14:34:42;15.08;67.22
70928;SHT31;58587;53.034;18.576;2022-09-28T14:37:38;15.03;67.86
70928;SHT31;58587;53.034;18.576;2022-09-28T14:40:23;14.79;67.29
70928;SHT31;58587;53.034;18.576;2022-09-28T14:45:49;14.63;69.75
70928;SHT31;58587;53.034;18.576;2022-09-28T14:48:21;14.41;67.81
70928;SHT31;58587;53.034;18.576;2022-09-28T14:50:47;14.36;68.94
70928;SHT31;58587;53.034;18.576;2022-09-28T14:53:19;14.18;67.40
70928;SHT31;58587;53.034;18.576;2022-09-28T14:55:48;14.07;67.70
70928;SHT31;58587;53.034;18.576;2022-09-28T14:58:20;14.07;69.67
70928;SHT31;58587;53.034;18.576;2022-09-28T15:00:49;13.97;69.39
70928;SHT31;58587;53.034;18.576;2022-09-28T15:03:15;13.94;69.28
70928;SHT31;58587;53.034;18.576;2022-09-28T15:05:43;13.84;70.34
70928;SHT31;58587;53.034;18.576;2022-09-28T15:08:11;13.77;71.29
70928;SHT31;58587;53.034;18.576;2022-09-28T15:10:38;13.71;71.61
70928;SHT31;58587;53.034;18.576;2022-09-28T15:13:21;13.70;71.59
70928;SHT31;58587;53.034;18.576;2022-09-28T15:16:08;13.60;73.28
70928;SHT31;58587;53.034;18.576;2022-09-28T15:21:22;13.53;72.28
70928;SHT31;58587;53.034;18.576;2022-09-28T15:23:48;13.50;72.42
70928;SHT31;58587;53.034;18.576;2022-09-28T15:26:25;13.43;72.48
70928;SHT31;58587;53.034;18.576;2022-09-28T15:28:53;13.35;72.23
70928;SHT31;58587;53.034;18.576;2022-09-28T15:31:21;13.32;70.68
70928;SHT31;58587;53.034;18.576;2022-09-28T15:33:47;13.19;69.94
70928;SHT31;58587;53.034;18.576;2022-09-28T15:36:40;13.07;70.15
70928;SHT31;58587;53.034;18.576;2022-09-28T15:41:38;12.97;73.05
70928;SHT31;58587;53.034;18.576;2022-09-28T15:46:36;12.89;73.11
70928;SHT31;58587;53.034;18.576;2022-09-28T15:49:03;12.86;73.81
70928;SHT31;58587;53.034;18.576;2022-09-28T15:51:31;12.78;75.11
70928;SHT31;58587;53.034;18.576;2022-09-28T15:54:23;12.72;75.50
70928;SHT31;58587;53.034;18.576;2022-09-28T15:56:55;12.73;76.10
70928;SHT31;58587;53.034;18.576;2022-09-28T16:02:18;12.65;77.46
70928;SHT31;58587;53.034;18.576;2022-09-28T16:04:45;12.61;76.89
70928;SHT31;58587;53.034;18.576;2022-09-28T16:17:31;12.41;73.65
70928;SHT31;58587;53.034;18.576;2022-09-28T16:20:00;12.32;74.22
70928;SHT31;58587;53.034;18.576;2022-09-28T16:22:27;12.24;75.64
70928;SHT31;58587;53.034;18.576;2022-09-28T16:24:55;12.18;76.83
70928;SHT31;58587;53.034;18.576;2022-09-28T16:27:41;12.14;76.55
70928;SHT31;58587;53.034;18.576;2022-09-28T16:30:18;12.11;77.16
70928;SHT31;58587;53.034;18.576;2022-09-28T16:32:59;12.10;76.87
70928;SHT31;58587;53.034;18.576;2022-09-28T16:35:48;12.05;77.08
70928;SHT31;58587;53.034;18.576;2022-09-28T16:38:17;12.04;77.09
70928;SHT31;58587;53.034;18.576;2022-09-28T16:40:44;11.97;76.06
70928;SHT31;58587;53.034;18.576;2022-09-28T16:43:19;11.91;77.47
70928;SHT31;58587;53.034;18.576;2022-09-28T16:46:00;11.91;77.90
70928;SHT31;58587;53.034;18.576;2022-09-28T16:48:30;11.91;79.07
70928;SHT31;58587;53.034;18.576;2022-09-28T16:50:56;11.91;80.88
70928;SHT31;58587;53.034;18.576;2022-09-28T16:53:22;11.79;80.78
70928;SHT31;58587;53.034;18.576;2022-09-28T16:56:07;11.73;81.00
70928;SHT31;58587;53.034;18.576;2022-09-28T16:58:32;11.66;79.63
70928;SHT31;58587;53.034;18.576;2022-09-28T17:00:58;11.60;81.88
70928;SHT31;58587;53.034;18.576;2022-09-28T17:03:24;11.50;82.46
70928;SHT31;58587;53.034;18.576;2022-09-28T17:05:50;11.52;83.32
70928;SHT31;58587;53.034;18.576;2022-09-28T17:08:18;11.46;84.54
70928;SHT31;58587;53.034;18.576;2022-09-28T17:10:54;11.43;84.29
70928;SHT31;58587;53.034;18.576;2022-09-28T17:13:21;11.36;84.37
70928;SHT31;58587;53.034;18.576;2022-09-28T17:16:02;11.29;85.32
70928;SHT31;58587;53.034;18.576;2022-09-28T17:18:28;11.20;85.68
70928;SHT31;58587;53.034;18.576;2022-09-28T17:20:56;11.16;86.08
70928;SHT31;58587;53.034;18.576;2022-09-28T17:23:23;10.91;85.41
70928;SHT31;58587;53.034;18.576;2022-09-28T17:25:48;10.96;85.72
70928;SHT31;58587;53.034;18.576;2022-09-28T17:28:34;10.89;85.42
70928;SHT31;58587;53.034;18.576;2022-09-28T17:31:00;10.76;84.46
70928;SHT31;58587;53.034;18.576;2022-09-28T17:33:26;10.71;85.09
70928;SHT31;58587;53.034;18.576;2022-09-28T17:35:56;10.55;86.21
70928;SHT31;58587;53.034;18.576;2022-09-28T17:38:23;10.57;85.79
70928;SHT31;58587;53.034;18.576;2022-09-28T17:40:48;10.57;86.52
70928;SHT31;58587;53.034;18.576;2022-09-28T17:43:14;10.48;86.39
70928;SHT31;58587;53.034;18.576;2022-09-28T17:45:39;10.44;86.88
70928;SHT31;58587;53.034;18.576;2022-09-28T17:48:17;10.40;87.69
70928;SHT31;58587;53.034;18.576;2022-09-28T17:50:44;10.31;87.83
70928;SHT31;58587;53.034;18.576;2022-09-28T17:53:10;10.33;88.02
70928;SHT31;58587;53.034;18.576;2022-09-28T17:55:36;10.21;88.42
70928;SHT31;58587;53.034;18.576;2022-09-28T17:58:18;10.11;88.68
70928;SHT31;58587;53.034;18.576;2022-09-28T18:00:49;10.13;88.55
70928;SHT31;58587;53.034;18.576;2022-09-28T18:05:42;10.25;88.85
70928;SHT31;58587;53.034;18.576;2022-09-28T18:08:14;10.24;88.98
70928;SHT31;58587;53.034;18.576;2022-09-28T18:10:41;10.24;88.82
70928;SHT31;58587;53.034;18.576;2022-09-28T18:13:06;10.25;89.43
70928;SHT31;58587;53.034;18.576;2022-09-28T18:15:32;10.21;89.07
70928;SHT31;58587;53.034;18.576;2022-09-28T18:17:57;10.25;89.00
70928;SHT31;58587;53.034;18.576;2022-09-28T18:20:23;10.27;89.27
70928;SHT31;58587;53.034;18.576;2022-09-28T18:22:48;10.30;89.17
70928;SHT31;58587;53.034;18.576;2022-09-28T18:25:13;10.31;88.81
70928;SHT31;58587;53.034;18.576;2022-09-28T18:27:39;10.33;89.14
70928;SHT31;58587;53.034;18.576;2022-09-28T18:30:05;10.33;88.91
70928;SHT31;58587;53.034;18.576;2022-09-28T18:32:33;10.34;88.59
70928;SHT31;58587;53.034;18.576;2022-09-28T18:35:01;10.33;88.85
70928;SHT31;58587;53.034;18.576;2022-09-28T18:37:27;10.36;89.36
70928;SHT31;58587;53.034;18.576;2022-09-28T18:39:52;10.37;89.76
70928;SHT31;58587;53.034;18.576;2022-09-28T18:42:18;10.37;89.70
70928;SHT31;58587;53.034;18.576;2022-09-28T18:44:44;10.37;89.28
70928;SHT31;58587;53.034;18.576;2022-09-28T18:47:11;10.34;89.63
70928;SHT31;58587;53.034;18.576;2022-09-28T18:49:39;10.38;89.59
70928;SHT31;58587;53.034;18.576;2022-09-28T18:52:05;10.37;89.05
70928;SHT31;58587;53.034;18.576;2022-09-28T18:54:30;10.33;89.26
70928;SHT31;58587;53.034;18.576;2022-09-28T18:56:57;10.33;89.33
70928;SHT31;58587;53.034;18.576;2022-09-28T18:59:23;10.30;89.33
70928;SHT31;58587;53.034;18.576;2022-09-28T19:01:49;10.30;89.69
70928;SHT31;58587;53.034;18.576;2022-09-28T19:04:16;10.33;89.68
70928;SHT31;58587;53.034;18.576;2022-09-28T19:06:44;10.33;89.51
70928;SHT31;58587;53.034;18.576;2022-09-28T19:09:19;10.29;89.36
70928;SHT31;58587;53.034;18.576;2022-09-28T19:11:45;10.25;89.33
70928;SHT31;58587;53.034;18.576;2022-09-28T19:14:11;10.21;89.78
70928;SHT31;58587;53.034;18.576;2022-09-28T19:16:40;10.20;89.53
70928;SHT31;58587;53.034;18.576;2022-09-28T19:19:07;10.18;88.66
70928;SHT31;58587;53.034;18.576;2022-09-28T19:21:33;10.18;89.31
70928;SHT31;58587;53.034;18.576;2022-09-28T19:24:02;10.17;89.23
70928;SHT31;58587;53.034;18.576;2022-09-28T19:26:29;10.10;88.86
70928;SHT31;58587;53.034;18.576;2022-09-28T19:28:55;10.14;89.24
70928;SHT31;58587;53.034;18.576;2022-09-28T19:31:21;10.11;89.90
70928;SHT31;58587;53.034;18.576;2022-09-28T19:33:47;10.03;89.70
70928;SHT31;58587;53.034;18.576;2022-09-28T19:36:15;10.02;90.41
70928;SHT31;58587;53.034;18.576;2022-09-28T19:38:41;10.03;90.18
70928;SHT31;58587;53.034;18.576;2022-09-28T19:41:15;10.06;90.34
70928;SHT31;58587;53.034;18.576;2022-09-28T19:44:00;10.06;90.21
70928;SHT31;58587;53.034;18.576;2022-09-28T19:46:31;10.02;89.80
70928;SHT31;58587;53.034;18.576;2022-09-28T19:49:14;9.96;89.01
70928;SHT31;58587;53.034;18.576;2022-09-28T19:51:53;9.96;89.12
70928;SHT31;58587;53.034;18.576;2022-09-28T19:54:23;9.90;89.68
70928;SHT31;58587;53.034;18.576;2022-09-28T19:56:54;9.89;90.31
70928;SHT31;58587;53.034;18.576;2022-09-28T19:59:20;9.86;90.15
70928;SHT31;58587;53.034;18.576;2022-09-28T20:01:46;9.85;90.17
70928;SHT31;58587;53.034;18.576;2022-09-28T20:04:12;9.78;89.65
70928;SHT31;58587;53.034;18.576;2022-09-28T20:06:39;9.76;90.01
70928;SHT31;58587;53.034;18.576;2022-09-28T20:09:05;9.78;90.48
70928;SHT31;58587;53.034;18.576;2022-09-28T20:11:31;9.75;90.29
70928;SHT31;58587;53.034;18.576;2022-09-28T20:13:57;9.80;90.38
70928;SHT31;58587;53.034;18.576;2022-09-28T20:16:27;9.73;90.51
70928;SHT31;58587;53.034;18.576;2022-09-28T20:18:55;9.73;90.63
70928;SHT31;58587;53.034;18.576;2022-09-28T20:21:23;9.72;90.15
70928;SHT31;58587;53.034;18.576;2022-09-28T20:23:50;9.72;90.69
70928;SHT31;58587;53.034;18.576;2022-09-28T20:26:18;9.65;90.96
70928;SHT31;58587;53.034;18.576;2022-09-28T20:28:43;9.65;90.90
70928;SHT31;58587;53.034;18.576;2022-09-28T20:31:14;9.63;90.72
70928;SHT31;58587;53.034;18.576;2022-09-28T20:33:40;9.62;90.57
70928;SHT31;58587;53.034;18.576;2022-09-28T20:36:12;9.59;90.82
70928;SHT31;58587;53.034;18.576;2022-09-28T20:38:39;9.58;90.63
70928;SHT31;58587;53.034;18.576;2022-09-28T20:41:12;9.60;91.02
70928;SHT31;58587;53.034;18.576;2022-09-28T20:43:39;9.59;91.34
70928;SHT31;58587;53.034;18.576;2022-09-28T20:46:06;9.56;91.21
70928;SHT31;58587;53.034;18.576;2022-09-28T20:48:32;9.52;90.87
70928;SHT31;58587;53.034;18.576;2022-09-28T20:51:03;9.48;91.01
70928;SHT31;58587;53.034;18.576;2022-09-28T20:53:29;9.45;91.03
70928;SHT31;58587;53.034;18.576;2022-09-28T20:55:59;9.38;90.70
70928;SHT31;58587;53.034;18.576;2022-09-28T20:58:26;9.38;90.89
70928;SHT31;58587;53.034;18.576;2022-09-28T21:00:51;9.34;90.74
70928;SHT31;58587;53.034;18.576;2022-09-28T21:03:17;9.36;90.96
70928;SHT31;58587;53.034;18.576;2022-09-28T21:05:42;9.34;91.14
70928;SHT31;58587;53.034;18.576;2022-09-28T21:08:08;9.35;91.50
70928;SHT31;58587;53.034;18.576;2022-09-28T21:10:33;9.34;91.72
70928;SHT31;58587;53.034;18.576;2022-09-28T21:12:58;9.35;91.15
70928;SHT31;58587;53.034;18.576;2022-09-28T21:15:24;9.35;91.47
70928;SHT31;58587;53.034;18.576;2022-09-28T21:17:49;9.38;91.74
70928;SHT31;58587;53.034;18.576;2022-09-28T21:20:15;9.40;91.49
70928;SHT31;58587;53.034;18.576;2022-09-28T21:22:40;9.42;91.41
70928;SHT31;58587;53.034;18.576;2022-09-28T21:25:06;9.42;91.48
70928;SHT31;58587;53.034;18.576;2022-09-28T21:27:31;9.40;91.38
70928;SHT31;58587;53.034;18.576;2022-09-28T21:29:57;9.45;91.83
70928;SHT31;58587;53.034;18.576;2022-09-28T21:32:22;9.42;91.58
70928;SHT31;58587;53.034;18.576;2022-09-28T21:34:48;9.48;91.98
70928;SHT31;58587;53.034;18.576;2022-09-28T21:37:14;9.48;91.87
70928;SHT31;58587;53.034;18.576;2022-09-28T21:39:40;9.52;92.16
70928;SHT31;58587;53.034;18.576;2022-09-28T21:42:06;9.55;91.88
70928;SHT31;58587;53.034;18.576;2022-09-28T21:44:31;9.53;92.06
70928;SHT31;58587;53.034;18.576;2022-09-28T21:46:57;9.53;91.95
70928;SHT31;58587;53.034;18.576;2022-09-28T21:49:22;9.53;91.95
70928;SHT31;58587;53.034;18.576;2022-09-28T21:51:47;9.55;91.87
70928;SHT31;58587;53.034;18.576;2022-09-28T21:54:13;9.55;91.95
70928;SHT31;58587;53.034;18.576;2022-09-28T21:56:39;9.55;91.79
70928;SHT31;58587;53.034;18.576;2022-09-28T21:59:04;9.58;91.78
70928;SHT31;58587;53.034;18.576;2022-09-28T22:01:30;9.56;91.99
70928;SHT31;58587;53.034;18.576;2022-09-28T22:03:56;9.59;92.02
70928;SHT31;58587;53.034;18.576;2022-09-28T22:06:24;9.62;91.72
70928;SHT31;58587;53.034;18.576;2022-09-28T22:08:52;9.62;91.99
70928;SHT31;58587;53.034;18.576;2022-09-28T22:11:19;9.65;92.34
70928;SHT31;58587;53.034;18.576;2022-09-28T22:13:54;9.66;92.50
70928;SHT31;58587;53.034;18.576;2022-09-28T22:16:21;9.70;92.24
70928;SHT31;58587;53.034;18.576;2022-09-28T22:18:48;9.73;92.33
70928;SHT31;58587;53.034;18.576;2022-09-28T22:21:19;9.72;92.15
70928;SHT31;58587;53.034;18.576;2022-09-28T22:23:45;9.73;92.35
70928;SHT31;58587;53.034;18.576;2022-09-28T22:26:13;9.69;92.28
70928;SHT31;58587;53.034;18.576;2022-09-28T22:28:46;9.70;92.16
70928;SHT31;58587;53.034;18.576;2022-09-28T22:31:13;9.70;91.66
70928;SHT31;58587;53.034;18.576;2022-09-28T22:33:39;9.75;91.93
70928;SHT31;58587;53.034;18.576;2022-09-28T22:36:04;9.78;91.54
70928;SHT31;58587;53.034;18.576;2022-09-28T22:38:31;9.78;91.67
70928;SHT31;58587;53.034;18.576;2022-09-28T22:40:56;9.76;91.79
70928;SHT31;58587;53.034;18.576;2022-09-28T22:43:23;9.75;92.01
70928;SHT31;58587;53.034;18.576;2022-09-28T22:45:49;9.78;91.48
70928;SHT31;58587;53.034;18.576;2022-09-28T22:48:15;9.78;91.56
70928;SHT31;58587;53.034;18.576;2022-09-28T22:50:50;9.79;91.77
70928;SHT31;58587;53.034;18.576;2022-09-28T22:53:16;9.78;92.09
70928;SHT31;58587;53.034;18.576;2022-09-28T22:55:42;9.76;91.70
70928;SHT31;58587;53.034;18.576;2022-09-28T22:58:07;9.75;91.46
70928;SHT31;58587;53.034;18.576;2022-09-28T23:00:33;9.76;91.88
70928;SHT31;58587;53.034;18.576;2022-09-28T23:02:58;9.80;91.97
70928;SHT31;58587;53.034;18.576;2022-09-28T23:05:24;9.75;91.34
70928;SHT31;58587;53.034;18.576;2022-09-28T23:07:49;9.73;91.62
70928;SHT31;58587;53.034;18.576;2022-09-28T23:10:14;9.76;91.57
70928;SHT31;58587;53.034;18.576;2022-09-28T23:12:40;9.75;91.27
70928;SHT31;58587;53.034;18.576;2022-09-28T23:15:06;9.63;90.81
70928;SHT31;58587;53.034;18.576;2022-09-28T23:17:31;9.62;91.54
70928;SHT31;58587;53.034;18.576;2022-09-28T23:19:57;9.66;91.62
70928;SHT31;58587;53.034;18.576;2022-09-28T23:22:22;9.65;91.28
70928;SHT31;58587;53.034;18.576;2022-09-28T23:24:48;9.69;91.17
70928;SHT31;58587;53.034;18.576;2022-09-28T23:27:13;9.70;91.83
70928;SHT31;58587;53.034;18.576;2022-09-28T23:29:38;9.76;92.04
70928;SHT31;58587;53.034;18.576;2022-09-28T23:32:11;9.73;92.01
70928;SHT31;58587;53.034;18.576;2022-09-28T23:34:37;9.72;91.93
70928;SHT31;58587;53.034;18.576;2022-09-28T23:37:03;9.76;91.90
70928;SHT31;58587;53.034;18.576;2022-09-28T23:39:28;9.73;91.82
70928;SHT31;58587;53.034;18.576;2022-09-28T23:41:53;9.73;91.69
70928;SHT31;58587;53.034;18.576;2022-09-28T23:44:19;9.72;92.04
70928;SHT31;58587;53.034;18.576;2022-09-28T23:46:44;9.75;91.88
70928;SHT31;58587;53.034;18.576;2022-09-28T23:49:10;9.69;91.74
70928;SHT31;58587;53.034;18.576;2022-09-28T23:51:36;9.73;91.98
70928;SHT31;58587;53.034;18.576;2022-09-28T23:54:02;9.72;92.15
70928;SHT31;58587;53.034;18.576;2022-09-28T23:56:30;9.72;92.23
70928;SHT31;58587;53.034;18.576;2022-09-28T23:58:56;9.70;92.34
